Time;durP1;ratioP1;P1;durP2;ratioP2;P2;SDS_P1;SDS_P2;PMS_P1;PMS_P2;Temp;Humidity;BMP_temperature;BMP_pressure;BME280_temperature;BME280_humidity;BME280_pressure;Samples;Min_cycle;Max_cycle;Signal;HPM_P1;HPM_P2
2022/10/25 00:02:14;;;;;;;;;;;12.80;99.90;;;;;;5064788;28;19960;-78
2022/10/25 00:04:41;;;;;;;;;;;12.80;99.90;;;;;;5066371;28;19956;-78
2022/10/25 00:07:08;;;;;;;;;;;12.80;99.90;;;;;;5065452;28;20393;-78
2022/10/25 00:09:34;;;;;;;;;;;12.80;99.90;;;;;;5097058;27;20005;-79
2022/10/25 00:12:03;;;;;;;;;;;12.80;99.90;;;;;;5067037;28;19932;-78
2022/10/25 00:14:30;;;;;;;;;;;12.70;99.90;;;;;;5062092;28;19974;-78
2022/10/25 00:16:57;;;;;;;;;;;12.70;99.90;;;;;;5092395;28;20016;-80
2022/10/25 00:19:23;;;;;;;;;;;12.70;99.90;;;;;;5098375;28;19928;-78
2022/10/25 00:21:50;;;;;;;;;;;12.70;99.90;;;;;;5065324;28;20365;-79
2022/10/25 00:24:17;;;;;;;;;;;12.70;99.90;;;;;;5065218;28;19935;-78
2022/10/25 00:26:44;;;;;;;;;;;12.60;99.90;;;;;;5063599;28;20015;-78
2022/10/25 00:29:12;;;;;;;;;;;12.60;99.90;;;;;;5065939;28;19978;-78
2022/10/25 00:31:39;;;;;;;;;;;12.70;99.90;;;;;;5062790;28;19968;-81
2022/10/25 00:34:06;;;;;;;;;;;12.60;99.90;;;;;;5061294;28;19971;-78
2022/10/25 00:36:32;;;;;;;;;;;12.70;99.90;;;;;;5065140;28;20039;-78
2022/10/25 00:38:59;;;;;;;;;;;12.70;99.90;;;;;;5065569;28;20040;-80
2022/10/25 00:41:27;;;;;;;;;;;12.60;99.90;;;;;;5064876;28;19929;-78
2022/10/25 00:43:54;;;;;;;;;;;12.60;99.90;;;;;;5064856;28;19978;-78
2022/10/25 00:46:24;;;;;;;;;;;12.50;99.90;;;;;;5064978;28;19924;-81
2022/10/25 00:48:53;;;;;;;;;;;12.50;99.90;;;;;;5094931;27;19928;-78
2022/10/25 00:51:20;;;;;;;;;;;12.50;99.90;;;;;;5063488;28;19931;-78
2022/10/25 00:53:47;;;;;;;;;;;12.50;99.90;;;;;;5061112;28;19929;-77
2022/10/25 00:56:16;;;;;;;;;;;12.50;99.90;;;;;;5066382;28;19928;-78
2022/10/25 00:58:45;;;;;;;;;;;12.50;99.90;;;;;;5064679;28;19936;-78
2022/10/25 01:01:13;;;;;;;;;;;12.50;99.90;;;;;;5065825;28;19925;-79
2022/10/25 01:03:42;;;;;;;;;;;12.50;99.90;;;;;;5060948;28;20009;-77
2022/10/25 01:06:12;;;;;;;;;;;12.50;99.90;;;;;;5059828;28;20006;-78
2022/10/25 01:08:40;;;;;;;;;;;12.40;99.90;;;;;;5066036;28;19970;-77
2022/10/25 01:11:07;;;;;;;;;;;12.40;99.90;;;;;;5059103;28;19979;-78
2022/10/25 01:13:34;;;;;;;;;;;12.40;99.90;;;;;;5061918;28;19928;-77
2022/10/25 01:16:06;;;;;;;;;;;12.40;99.90;;;;;;5063735;28;19974;-78
2022/10/25 01:18:37;;;;;;;;;;;12.40;99.90;;;;;;5062936;28;20362;-79
2022/10/25 01:21:17;;;;;;;;;;;12.40;99.90;;;;;;5063498;28;20020;-78
2022/10/25 01:23:52;;;;;;;;;;;12.40;99.90;;;;;;5063319;28;20462;-77
2022/10/25 01:26:32;;;;;;;;;;;12.40;99.90;;;;;;5063857;28;19925;-79
2022/10/25 01:29:09;;;;;;;;;;;12.40;99.90;;;;;;5061788;28;20450;-77
2022/10/25 01:31:39;;;;;;;;;;;12.40;99.90;;;;;;5062698;28;19975;-77
2022/10/25 01:34:09;;;;;;;;;;;12.30;99.90;;;;;;5065087;28;20043;-78
2022/10/25 01:36:41;;;;;;;;;;;12.30;99.90;;;;;;5061629;28;19940;-78
2022/10/25 01:39:10;;;;;;;;;;;12.30;99.90;;;;;;5065547;28;19931;-78
2022/10/25 01:41:41;;;;;;;;;;;12.30;99.90;;;;;;5061746;28;19964;-78
2022/10/25 01:44:13;;;;;;;;;;;12.30;99.90;;;;;;5061531;28;20019;-77
2022/10/25 01:46:44;;;;;;;;;;;12.20;99.90;;;;;;5093406;28;19968;-78
2022/10/25 01:49:13;;;;;;;;;;;12.20;99.90;;;;;;5064896;28;19979;-77
2022/10/25 01:51:40;;;;;;;;;;;12.20;99.90;;;;;;5066510;28;19932;-77
2022/10/25 01:54:17;;;;;;;;;;;12.20;99.90;;;;;;5062461;28;19974;-81
2022/10/25 01:56:46;;;;;;;;;;;12.10;99.90;;;;;;5062377;28;20462;-77
2022/10/25 01:59:19;;;;;;;;;;;12.20;99.90;;;;;;5066299;28;19925;-78
2022/10/25 02:01:55;;;;;;;;;;;12.20;99.90;;;;;;5065092;28;19924;-78
2022/10/25 02:04:25;;;;;;;;;;;12.10;99.90;;;;;;5061187;28;20015;-78
2022/10/25 02:06:55;;;;;;;;;;;12.10;99.90;;;;;;5065288;28;19956;-78
2022/10/25 02:09:27;;;;;;;;;;;12.10;99.90;;;;;;5096958;28;20018;-78
2022/10/25 02:11:55;;;;;;;;;;;12.10;99.90;;;;;;5062162;28;20077;-78
2022/10/25 02:14:24;;;;;;;;;;;12.10;99.90;;;;;;5061618;28;19928;-81
2022/10/25 02:16:54;;;;;;;;;;;12.10;99.90;;;;;;5064617;28;20014;-77
2022/10/25 02:19:23;;;;;;;;;;;12.10;99.90;;;;;;5065815;28;19924;-77
2022/10/25 02:21:51;;;;;;;;;;;12.10;99.90;;;;;;5061960;28;20382;-78
2022/10/25 02:24:19;;;;;;;;;;;12.00;99.90;;;;;;5064921;28;20278;-79
2022/10/25 02:26:47;;;;;;;;;;;12.00;99.90;;;;;;5063052;28;20007;-78
2022/10/25 02:29:15;;;;;;;;;;;12.00;99.90;;;;;;5059846;28;20020;-79
2022/10/25 02:31:41;;;;;;;;;;;12.00;99.90;;;;;;5065363;28;20015;-77
2022/10/25 02:34:10;;;;;;;;;;;12.00;99.90;;;;;;5097229;28;20014;-81
2022/10/25 02:36:36;;;;;;;;;;;11.90;99.90;;;;;;5063915;28;19931;-78
2022/10/25 02:39:04;;;;;;;;;;;11.90;99.90;;;;;;5062640;28;19933;-79
2022/10/25 02:41:30;;;;;;;;;;;11.90;99.90;;;;;;5059273;28;20378;-79
2022/10/25 02:47:19;;;;;;;;;;;11.90;99.90;;;;;;5059001;28;19927;-77
2022/10/25 02:49:48;;;;;;;;;;;11.80;99.90;;;;;;5065880;28;21272;-80
2022/10/25 02:52:14;;;;;;;;;;;11.80;99.90;;;;;;5058713;28;20378;-80
2022/10/25 02:54:41;;;;;;;;;;;11.90;99.90;;;;;;5065920;28;19932;-78
2022/10/25 02:57:08;;;;;;;;;;;11.90;99.90;;;;;;5063461;28;20140;-77
2022/10/25 02:59:35;;;;;;;;;;;11.80;99.90;;;;;;5070450;28;20010;-80
2022/10/25 03:02:02;;;;;;;;;;;11.80;99.90;;;;;;5065952;28;19979;-78
2022/10/25 03:04:28;;;;;;;;;;;11.80;99.90;;;;;;5067148;28;19960;-78
2022/10/25 03:06:57;;;;;;;;;;;11.80;99.90;;;;;;5064889;28;20105;-78
2022/10/25 03:09:24;;;;;;;;;;;11.80;99.90;;;;;;5066313;28;19928;-80
2022/10/25 03:11:51;;;;;;;;;;;11.80;99.90;;;;;;5066735;28;19929;-78
2022/10/25 03:14:17;;;;;;;;;;;11.80;99.90;;;;;;5063408;28;19935;-79
2022/10/25 03:16:44;;;;;;;;;;;11.80;99.90;;;;;;5066719;28;20005;-78
2022/10/25 03:19:11;;;;;;;;;;;11.80;99.90;;;;;;5069497;28;20337;-78
2022/10/25 03:21:38;;;;;;;;;;;11.80;99.90;;;;;;5066081;28;20418;-78
2022/10/25 03:24:06;;;;;;;;;;;11.80;99.90;;;;;;5063338;28;19928;-79
2022/10/25 03:26:33;;;;;;;;;;;11.80;99.90;;;;;;5067638;28;20526;-79
2022/10/25 03:29:00;;;;;;;;;;;11.80;99.90;;;;;;5067404;28;19932;-78
2022/10/25 03:31:27;;;;;;;;;;;11.90;99.90;;;;;;5064897;28;19932;-77
2022/10/25 03:33:53;;;;;;;;;;;11.80;99.90;;;;;;5068179;28;19963;-81
2022/10/25 03:36:20;;;;;;;;;;;11.90;99.90;;;;;;5067453;28;19925;-78
2022/10/25 03:38:47;;;;;;;;;;;11.80;99.90;;;;;;5067499;28;20002;-78
2022/10/25 03:41:15;;;;;;;;;;;11.80;99.90;;;;;;5062059;28;19925;-80
2022/10/25 03:43:42;;;;;;;;;;;11.80;99.90;;;;;;5068397;28;19924;-81
2022/10/25 03:46:09;;;;;;;;;;;11.80;99.90;;;;;;5067141;28;19979;-78
2022/10/25 03:48:37;;;;;;;;;;;11.80;99.90;;;;;;5063524;28;19934;-79
2022/10/25 03:51:04;;;;;;;;;;;11.80;99.90;;;;;;5067142;28;20314;-79
2022/10/25 03:53:32;;;;;;;;;;;11.80;99.90;;;;;;5068024;28;20023;-78
2022/10/25 03:55:59;;;;;;;;;;;11.70;99.90;;;;;;5065772;28;19928;-78
2022/10/25 03:58:27;;;;;;;;;;;11.80;99.90;;;;;;5064426;28;20015;-78
2022/10/25 04:00:54;;;;;;;;;;;11.80;99.90;;;;;;5066788;28;19931;-78
2022/10/25 04:03:20;;;;;;;;;;;11.70;99.90;;;;;;5067228;28;20019;-80
2022/10/25 04:05:47;;;;;;;;;;;11.70;99.90;;;;;;5067058;28;20019;-78
2022/10/25 04:08:14;;;;;;;;;;;11.70;99.90;;;;;;5066781;28;20011;-79
2022/10/25 04:10:41;;;;;;;;;;;11.70;99.90;;;;;;5060769;28;19952;-81
2022/10/25 04:13:07;;;;;;;;;;;11.70;99.90;;;;;;5065827;28;20314;-78
2022/10/25 04:15:37;;;;;;;;;;;11.60;99.90;;;;;;5066227;28;20006;-78
2022/10/25 04:18:03;;;;;;;;;;;11.70;99.90;;;;;;5067888;28;20033;-78
2022/10/25 04:20:30;;;;;;;;;;;11.70;99.90;;;;;;5063056;28;19925;-77
2022/10/25 04:22:57;;;;;;;;;;;11.70;99.90;;;;;;5061165;28;19928;-80
2022/10/25 04:25:25;;;;;;;;;;;11.60;99.90;;;;;;5059610;28;19964;-78
2022/10/25 04:27:52;;;;;;;;;;;11.60;99.90;;;;;;5056002;28;19929;-78
2022/10/25 04:30:18;;;;;;;;;;;11.60;99.90;;;;;;5087893;27;20458;-80
2022/10/25 04:32:47;;;;;;;;;;;11.60;99.90;;;;;;5061754;28;19924;-81
2022/10/25 04:35:13;;;;;;;;;;;11.60;99.90;;;;;;5060574;28;19933;-79
2022/10/25 04:37:41;;;;;;;;;;;11.60;99.90;;;;;;5056595;28;20059;-92
2022/10/25 04:40:10;;;;;;;;;;;11.60;99.90;;;;;;5058241;28;20111;-78
2022/10/25 04:42:37;;;;;;;;;;;11.50;99.90;;;;;;5055369;28;19928;-77
2022/10/25 04:45:04;;;;;;;;;;;11.50;99.90;;;;;;5083684;27;19980;-75
2022/10/25 04:47:32;;;;;;;;;;;11.50;99.90;;;;;;5059296;28;19931;-75
2022/10/25 04:50:00;;;;;;;;;;;11.50;99.90;;;;;;5058763;28;20314;-75
2022/10/25 04:52:28;;;;;;;;;;;11.50;99.90;;;;;;5064934;28;19974;-75
2022/10/25 04:54:55;;;;;;;;;;;11.50;99.90;;;;;;5053456;28;19932;-75
2022/10/25 04:57:22;;;;;;;;;;;11.50;99.90;;;;;;5065150;28;19928;-75
2022/10/25 04:59:49;;;;;;;;;;;11.50;99.90;;;;;;5050860;28;20016;-75
2022/10/25 05:02:15;;;;;;;;;;;11.50;99.90;;;;;;5060344;28;19960;-75
2022/10/25 05:04:42;;;;;;;;;;;11.50;99.90;;;;;;5054944;28;19928;-83
2022/10/25 05:07:10;;;;;;;;;;;11.50;99.90;;;;;;5059279;28;19970;-74
2022/10/25 05:09:37;;;;;;;;;;;11.50;99.90;;;;;;5050517;28;20202;-75
2022/10/25 05:12:04;;;;;;;;;;;11.50;99.90;;;;;;5052233;28;20414;-75
2022/10/25 05:14:31;;;;;;;;;;;11.40;99.90;;;;;;5091720;28;20025;-74
2022/10/25 05:16:58;;;;;;;;;;;11.40;99.90;;;;;;5056670;28;19964;-75
2022/10/25 05:19:24;;;;;;;;;;;11.40;99.90;;;;;;5062427;28;19970;-75
2022/10/25 05:21:51;;;;;;;;;;;11.40;99.90;;;;;;5052735;28;19935;-77
2022/10/25 05:24:20;;;;;;;;;;;11.40;99.90;;;;;;5056843;28;20016;-76
2022/10/25 05:26:47;;;;;;;;;;;11.40;99.90;;;;;;5047612;28;19936;-75
2022/10/25 05:29:17;;;;;;;;;;;11.40;99.90;;;;;;5090383;27;19925;-75
2022/10/25 05:31:44;;;;;;;;;;;11.40;99.90;;;;;;5037353;28;20055;-76
2022/10/25 05:34:11;;;;;;;;;;;11.30;99.90;;;;;;5050975;28;20389;-75
2022/10/25 05:36:37;;;;;;;;;;;11.40;99.90;;;;;;5048881;28;20017;-76
2022/10/25 05:39:04;;;;;;;;;;;11.40;99.90;;;;;;5041678;28;20018;-76
2022/10/25 05:41:33;;;;;;;;;;;11.40;99.90;;;;;;5052695;28;19932;-74
2022/10/25 05:43:59;;;;;;;;;;;11.30;99.90;;;;;;5049437;28;20087;-77
2022/10/25 05:46:26;;;;;;;;;;;11.30;99.90;;;;;;5059969;28;20011;-80
2022/10/25 05:48:53;;;;;;;;;;;11.30;99.90;;;;;;5058061;28;19936;-80
2022/10/25 05:51:21;;;;;;;;;;;11.30;99.90;;;;;;5060576;28;19924;-88
2022/10/25 05:53:48;;;;;;;;;;;11.30;99.90;;;;;;5050083;28;19958;-79
2022/10/25 05:56:15;;;;;;;;;;;11.30;99.90;;;;;;5052802;28;20029;-78
2022/10/25 05:58:44;;;;;;;;;;;11.30;99.90;;;;;;5056268;28;19924;-77
2022/10/25 06:01:11;;;;;;;;;;;11.30;99.90;;;;;;5055721;28;19924;-82
2022/10/25 06:03:38;;;;;;;;;;;11.30;99.90;;;;;;5056354;28;20114;-79
2022/10/25 06:06:07;;;;;;;;;;;11.30;99.90;;;;;;5073190;28;19928;-77
2022/10/25 06:08:34;;;;;;;;;;;11.30;99.90;;;;;;5055747;28;19978;-80
2022/10/25 06:11:01;;;;;;;;;;;11.30;99.90;;;;;;5056771;28;19924;-77
2022/10/25 06:13:28;;;;;;;;;;;11.30;99.90;;;;;;5060364;28;20187;-78
2022/10/25 06:15:56;;;;;;;;;;;11.30;99.90;;;;;;5058978;28;20157;-77
2022/10/25 06:18:23;;;;;;;;;;;11.20;99.90;;;;;;5054872;28;20019;-80
2022/10/25 06:20:50;;;;;;;;;;;11.20;99.90;;;;;;5082602;28;19932;-78
2022/10/25 06:23:17;;;;;;;;;;;11.20;99.90;;;;;;5057955;28;19959;-78
2022/10/25 06:25:44;;;;;;;;;;;11.20;99.90;;;;;;5059977;28;22875;-77
2022/10/25 06:28:10;;;;;;;;;;;11.20;99.90;;;;;;5054045;28;19967;-81
2022/10/25 06:30:37;;;;;;;;;;;11.20;99.90;;;;;;5059823;28;20417;-78
2022/10/25 06:33:05;;;;;;;;;;;11.20;99.90;;;;;;5062447;28;20562;-81
2022/10/25 06:35:32;;;;;;;;;;;11.20;99.90;;;;;;5062570;28;20291;-79
2022/10/25 06:38:00;;;;;;;;;;;11.30;99.90;;;;;;5064814;28;19978;-77
2022/10/25 06:40:27;;;;;;;;;;;11.20;99.90;;;;;;5088598;27;19995;-79
2022/10/25 06:42:55;;;;;;;;;;;11.20;99.90;;;;;;5075040;28;19990;-78
2022/10/25 06:45:22;;;;;;;;;;;11.20;99.90;;;;;;5092247;28;19925;-78
2022/10/25 06:47:48;;;;;;;;;;;11.30;99.90;;;;;;5059871;28;19933;-81
2022/10/25 06:50:20;;;;;;;;;;;11.20;99.90;;;;;;5093602;28;20007;-81
2022/10/25 06:52:46;;;;;;;;;;;11.20;99.90;;;;;;5061521;28;19959;-81
2022/10/25 06:55:13;;;;;;;;;;;11.10;99.90;;;;;;5062354;28;19925;-78
2022/10/25 06:57:40;;;;;;;;;;;11.10;99.90;;;;;;5060946;28;20404;-77
2022/10/25 07:00:08;;;;;;;;;;;11.10;99.90;;;;;;5075324;28;19972;-82
2022/10/25 07:02:34;;;;;;;;;;;11.10;99.90;;;;;;5060479;28;19928;-79
2022/10/25 07:05:01;;;;;;;;;;;11.10;99.90;;;;;;5061813;28;19931;-79
2022/10/25 07:07:29;;;;;;;;;;;11.10;99.90;;;;;;5061686;28;20345;-78
2022/10/25 07:09:56;;;;;;;;;;;11.20;99.90;;;;;;5060213;28;20019;-78
2022/10/25 07:12:23;;;;;;;;;;;11.20;99.90;;;;;;5057619;28;19985;-80
2022/10/25 07:14:50;;;;;;;;;;;11.20;99.90;;;;;;5056506;28;19929;-77
2022/10/25 07:17:17;;;;;;;;;;;11.20;99.90;;;;;;5052467;28;19929;-77
2022/10/25 07:19:43;;;;;;;;;;;11.20;99.90;;;;;;5100410;28;20275;-77
2022/10/25 07:22:10;;;;;;;;;;;11.20;99.90;;;;;;5060245;28;19930;-77
2022/10/25 07:24:38;;;;;;;;;;;11.20;99.90;;;;;;5065485;28;19925;-76
2022/10/25 07:27:05;;;;;;;;;;;11.20;99.90;;;;;;5067396;28;20560;-76
2022/10/25 07:29:32;;;;;;;;;;;11.20;99.90;;;;;;5062217;28;19961;-80
2022/10/25 07:31:59;;;;;;;;;;;11.20;99.90;;;;;;5062318;28;19931;-77
2022/10/25 07:34:26;;;;;;;;;;;11.20;99.90;;;;;;5062403;28;20452;-77
2022/10/25 07:36:52;;;;;;;;;;;11.20;99.90;;;;;;5067318;28;20408;-79
2022/10/25 07:39:20;;;;;;;;;;;11.20;99.90;;;;;;5083151;28;19925;-89
2022/10/25 07:41:48;;;;;;;;;;;11.20;99.90;;;;;;5028464;28;19929;-76
2022/10/25 07:44:15;;;;;;;;;;;11.20;99.90;;;;;;5057211;28;19987;-77
2022/10/25 07:46:42;;;;;;;;;;;11.20;99.90;;;;;;5058475;28;19935;-78
2022/10/25 07:49:09;;;;;;;;;;;11.20;99.90;;;;;;5059066;28;20012;-76
2022/10/25 07:51:35;;;;;;;;;;;11.20;99.90;;;;;;5056833;28;19930;-76
2022/10/25 07:54:02;;;;;;;;;;;11.30;99.90;;;;;;5056736;28;19968;-75
2022/10/25 07:56:29;;;;;;;;;;;11.30;99.90;;;;;;5060211;28;19951;-76
2022/10/25 07:58:57;;;;;;;;;;;11.30;99.90;;;;;;5055972;28;19924;-76
2022/10/25 08:01:25;;;;;;;;;;;11.30;99.90;;;;;;5055020;28;19936;-78
2022/10/25 08:03:53;;;;;;;;;;;11.30;99.90;;;;;;5053296;28;19939;-77
2022/10/25 08:06:20;;;;;;;;;;;11.30;99.90;;;;;;5055210;28;19994;-76
2022/10/25 08:08:47;;;;;;;;;;;11.30;99.90;;;;;;5054827;28;19943;-76
2022/10/25 08:11:13;;;;;;;;;;;11.30;99.90;;;;;;5058993;28;19928;-76
2022/10/25 08:13:40;;;;;;;;;;;11.30;99.90;;;;;;5052330;28;19946;-76
2022/10/25 08:16:09;;;;;;;;;;;11.30;99.90;;;;;;5056780;28;19924;-76
2022/10/25 08:18:36;;;;;;;;;;;11.30;99.90;;;;;;5056707;28;19967;-76
2022/10/25 08:21:03;;;;;;;;;;;11.30;99.90;;;;;;5048811;28;19933;-77
2022/10/25 08:23:30;;;;;;;;;;;11.30;99.90;;;;;;5059029;28;20031;-76
2022/10/25 08:25:57;;;;;;;;;;;11.30;99.90;;;;;;5054509;28;19931;-76
2022/10/25 08:28:24;;;;;;;;;;;11.30;99.90;;;;;;5063082;28;20013;-77
2022/10/25 08:30:52;;;;;;;;;;;11.30;99.90;;;;;;5050091;28;19942;-76
2022/10/25 08:33:20;;;;;;;;;;;11.40;99.90;;;;;;5080734;28;19978;-77
2022/10/25 08:35:47;;;;;;;;;;;11.40;99.90;;;;;;5057483;28;20378;-77
2022/10/25 08:38:14;;;;;;;;;;;11.40;99.90;;;;;;5056617;28;19932;-76
2022/10/25 08:40:44;;;;;;;;;;;11.40;99.90;;;;;;5049815;28;19928;-77
2022/10/25 08:43:16;;;;;;;;;;;11.40;99.90;;;;;;5059689;28;19964;-76
2022/10/25 08:45:50;;;;;;;;;;;11.40;99.90;;;;;;5054632;28;19936;-77
2022/10/25 08:48:19;;;;;;;;;;;11.50;99.90;;;;;;5055241;28;19935;-77
2022/10/25 08:50:49;;;;;;;;;;;11.40;99.90;;;;;;5058968;28;20506;-76
2022/10/25 08:53:21;;;;;;;;;;;11.50;99.90;;;;;;5055244;28;19952;-77
2022/10/25 08:55:48;;;;;;;;;;;11.40;99.90;;;;;;5054950;28;19977;-78
2022/10/25 08:58:17;;;;;;;;;;;11.50;99.90;;;;;;5059197;28;20420;-76
2022/10/25 09:00:45;;;;;;;;;;;11.50;99.90;;;;;;5045388;28;20013;-77
2022/10/25 09:03:14;;;;;;;;;;;11.50;99.90;;;;;;5050183;28;20015;-77
2022/10/25 09:05:42;;;;;;;;;;;11.50;99.90;;;;;;5056089;28;19978;-76
2022/10/25 09:08:20;;;;;;;;;;;11.50;99.90;;;;;;5055399;28;19937;-86
2022/10/25 09:10:49;;;;;;;;;;;11.50;99.90;;;;;;5047717;28;19930;-77
2022/10/25 09:13:21;;;;;;;;;;;11.60;99.90;;;;;;5058752;28;20409;-77
2022/10/25 09:15:53;;;;;;;;;;;11.50;99.90;;;;;;5053132;28;19954;-76
2022/10/25 09:18:22;;;;;;;;;;;11.60;99.90;;;;;;5048941;28;20616;-76
2022/10/25 09:20:50;;;;;;;;;;;11.60;99.90;;;;;;5049511;28;19928;-76
2022/10/25 09:23:23;;;;;;;;;;;11.60;99.90;;;;;;5057660;28;19925;-76
2022/10/25 09:25:54;;;;;;;;;;;11.60;99.90;;;;;;5052398;28;20358;-76
2022/10/25 09:28:23;;;;;;;;;;;11.60;99.90;;;;;;5051770;28;20370;-77
2022/10/25 09:30:52;;;;;;;;;;;11.70;99.90;;;;;;5053211;28;20014;-77
2022/10/25 09:33:21;;;;;;;;;;;11.70;99.90;;;;;;5078337;28;20408;-77
2022/10/25 09:35:52;;;;;;;;;;;11.70;99.90;;;;;;5057797;28;19924;-76
2022/10/25 09:38:22;;;;;;;;;;;11.70;99.90;;;;;;5057010;28;19925;-77
2022/10/25 09:40:50;;;;;;;;;;;11.70;99.90;;;;;;5050856;28;20347;-77
2022/10/25 09:43:18;;;;;;;;;;;11.70;99.90;;;;;;5053745;28;19939;-77
2022/10/25 09:45:47;;;;;;;;;;;11.70;99.90;;;;;;5058294;28;19978;-77
2022/10/25 09:48:20;;;;;;;;;;;11.70;99.90;;;;;;5050718;28;19933;-76
2022/10/25 09:50:49;;;;;;;;;;;11.70;99.90;;;;;;5043565;28;19932;-76
2022/10/25 09:53:16;;;;;;;;;;;11.70;99.90;;;;;;5055705;28;19933;-76
2022/10/25 09:55:48;;;;;;;;;;;11.80;99.90;;;;;;5060769;28;19952;-78
2022/10/25 09:58:18;;;;;;;;;;;11.70;99.90;;;;;;5063697;28;19964;-77
2022/10/25 10:00:45;;;;;;;;;;;11.80;99.90;;;;;;5055600;28;19972;-74
2022/10/25 10:03:12;;;;;;;;;;;11.80;99.90;;;;;;5054104;28;19928;-74
2022/10/25 10:05:40;;;;;;;;;;;11.80;99.90;;;;;;5062368;28;20247;-73
2022/10/25 10:08:08;;;;;;;;;;;11.80;99.90;;;;;;5055882;28;20395;-74
2022/10/25 10:10:35;;;;;;;;;;;11.80;99.90;;;;;;5087824;28;19929;-74
2022/10/25 10:13:04;;;;;;;;;;;11.80;99.90;;;;;;5061369;28;19971;-74
2022/10/25 10:15:35;;;;;;;;;;;11.80;99.90;;;;;;5058099;28;19932;-74
2022/10/25 10:18:21;;;;;;;;;;;11.80;99.90;;;;;;5054364;28;19928;-74
2022/10/25 10:20:59;;;;;;;;;;;11.90;99.90;;;;;;5050556;28;19947;-75
2022/10/25 10:23:27;;;;;;;;;;;11.80;99.90;;;;;;5057037;28;19932;-74
2022/10/25 10:25:54;;;;;;;;;;;11.80;99.90;;;;;;5052826;28;19933;-74
2022/10/25 10:28:22;;;;;;;;;;;11.90;99.90;;;;;;5061132;28;20415;-74
2022/10/25 10:30:53;;;;;;;;;;;11.90;99.90;;;;;;5064411;28;19932;-74
2022/10/25 10:33:20;;;;;;;;;;;11.90;99.90;;;;;;5057985;28;19963;-74
2022/10/25 10:35:46;;;;;;;;;;;11.90;99.90;;;;;;5056206;28;19924;-75
2022/10/25 10:38:14;;;;;;;;;;;12.00;99.90;;;;;;5051813;28;20042;-74
2022/10/25 10:40:41;;;;;;;;;;;11.90;99.90;;;;;;5060895;28;19978;-74
2022/10/25 10:43:23;;;;;;;;;;;11.90;99.90;;;;;;5058040;28;20452;-74
2022/10/25 10:45:51;;;;;;;;;;;11.90;99.90;;;;;;5061521;28;20009;-75
2022/10/25 10:48:19;;;;;;;;;;;12.00;99.90;;;;;;5059770;28;19925;-76
2022/10/25 10:50:48;;;;;;;;;;;12.00;99.90;;;;;;5059470;28;19978;-76
2022/10/25 10:53:19;;;;;;;;;;;12.00;99.90;;;;;;5058918;28;20032;-75
2022/10/25 10:55:47;;;;;;;;;;;12.00;99.90;;;;;;5045481;28;22845;-75
2022/10/25 10:58:15;;;;;;;;;;;12.00;99.90;;;;;;5055324;28;20314;-75
2022/10/25 11:00:52;;;;;;;;;;;12.10;99.90;;;;;;5060809;28;19928;-73
2022/10/25 11:03:35;;;;;;;;;;;12.10;99.90;;;;;;5061288;28;20375;-72
2022/10/25 11:06:02;;;;;;;;;;;12.10;99.90;;;;;;5049750;28;19933;-73
2022/10/25 11:08:29;;;;;;;;;;;12.10;99.90;;;;;;5060260;28;20032;-76
2022/10/25 11:11:11;;;;;;;;;;;12.10;99.90;;;;;;5087115;28;20054;-75
2022/10/25 11:13:38;;;;;;;;;;;12.10;99.90;;;;;;5055149;28;19924;-73
2022/10/25 11:16:23;;;;;;;;;;;12.10;99.90;;;;;;5048551;28;20398;-73
2022/10/25 11:18:55;;;;;;;;;;;12.10;99.90;;;;;;5057488;28;20019;-76
2022/10/25 11:21:30;;;;;;;;;;;12.10;99.90;;;;;;5062590;28;19924;-72
2022/10/25 11:24:02;;;;;;;;;;;12.20;99.90;;;;;;5052538;28;19930;-74
2022/10/25 11:26:32;;;;;;;;;;;12.20;99.90;;;;;;5063770;28;19929;-72
2022/10/25 11:29:02;;;;;;;;;;;12.20;99.90;;;;;;5066231;28;19981;-75
2022/10/25 11:31:35;;;;;;;;;;;12.20;99.90;;;;;;5067303;28;19992;-76
2022/10/25 11:34:07;;;;;;;;;;;12.20;99.90;;;;;;5060831;28;19974;-73
2022/10/25 11:36:40;;;;;;;;;;;12.20;99.90;;;;;;5057826;28;19975;-72
2022/10/25 11:39:12;;;;;;;;;;;12.30;99.90;;;;;;5079923;27;19963;-73
2022/10/25 11:41:43;;;;;;;;;;;12.30;99.90;;;;;;5060709;28;19940;-81
2022/10/25 11:44:17;;;;;;;;;;;12.30;99.90;;;;;;5049174;28;19937;-73
2022/10/25 11:46:47;;;;;;;;;;;12.40;99.90;;;;;;5054821;28;19988;-72
2022/10/25 11:49:26;;;;;;;;;;;12.40;99.90;;;;;;5053803;28;20425;-73
2022/10/25 11:52:02;;;;;;;;;;;12.40;99.90;;;;;;5060807;28;20287;-74
2022/10/25 11:54:33;;;;;;;;;;;12.50;99.90;;;;;;5057955;28;19940;-74
2022/10/25 11:57:06;;;;;;;;;;;12.50;99.90;;;;;;5052535;28;19990;-73
2022/10/25 11:59:36;;;;;;;;;;;12.50;99.90;;;;;;5054118;28;19928;-74
2022/10/25 12:02:13;;;;;;;;;;;12.50;99.90;;;;;;5057458;28;19932;-73
2022/10/25 12:04:57;;;;;;;;;;;12.60;99.90;;;;;;5051916;28;20027;-73
2022/10/25 12:07:28;;;;;;;;;;;12.50;99.90;;;;;;5069719;28;19970;-72
2022/10/25 12:10:01;;;;;;;;;;;12.60;99.90;;;;;;5052715;28;20015;-74
2022/10/25 12:12:33;;;;;;;;;;;12.60;99.90;;;;;;5050967;28;20001;-74
2022/10/25 12:15:00;;;;;;;;;;;12.60;99.90;;;;;;5049997;28;20554;-73
2022/10/25 12:17:29;;;;;;;;;;;12.70;99.90;;;;;;5055428;28;20002;-73
2022/10/25 12:19:59;;;;;;;;;;;12.70;99.90;;;;;;5052912;28;19967;-74
2022/10/25 12:22:27;;;;;;;;;;;12.70;99.90;;;;;;5060083;28;19971;-74
2022/10/25 12:24:58;;;;;;;;;;;12.70;99.90;;;;;;5056918;28;19925;-73
2022/10/25 12:27:25;;;;;;;;;;;12.80;99.90;;;;;;5056518;28;19960;-75
2022/10/25 12:29:53;;;;;;;;;;;12.90;99.90;;;;;;5057152;28;20043;-74
2022/10/25 12:32:21;;;;;;;;;;;12.90;99.90;;;;;;5057979;28;20014;-83
2022/10/25 12:34:53;;;;;;;;;;;12.90;99.90;;;;;;5058705;28;20152;-74
2022/10/25 12:37:24;;;;;;;;;;;12.90;99.90;;;;;;5061060;28;19976;-74
2022/10/25 12:39:51;;;;;;;;;;;12.90;99.90;;;;;;5053772;28;20023;-73
2022/10/25 12:42:20;;;;;;;;;;;13.00;99.90;;;;;;5060721;28;20019;-74
2022/10/25 12:44:56;;;;;;;;;;;13.00;99.90;;;;;;5057207;28;19964;-74
2022/10/25 12:47:27;;;;;;;;;;;13.00;99.90;;;;;;5050250;28;20021;-75
2022/10/25 12:50:13;;;;;;;;;;;13.10;99.90;;;;;;5056784;28;19977;-74
2022/10/25 12:52:49;;;;;;;;;;;13.10;99.90;;;;;;5055247;28;20058;-74
2022/10/25 12:55:37;;;;;;;;;;;13.10;99.90;;;;;;5056906;28;20401;-74
2022/10/25 12:58:10;;;;;;;;;;;13.20;99.90;;;;;;5059347;28;19947;-77
2022/10/25 13:00:39;;;;;;;;;;;13.20;99.90;;;;;;5062792;28;20009;-80
2022/10/25 13:03:27;;;;;;;;;;;13.20;99.90;;;;;;5066516;28;19928;-79
2022/10/25 13:06:12;;;;;;;;;;;13.30;99.90;;;;;;5048497;28;19986;-74
2022/10/25 13:08:40;;;;;;;;;;;13.40;99.90;;;;;;5082503;28;19947;-76
2022/10/25 13:11:08;;;;;;;;;;;13.40;99.90;;;;;;5047575;28;20402;-81
2022/10/25 13:13:37;;;;;;;;;;;13.50;99.90;;;;;;5055645;28;20028;-75
2022/10/25 13:16:06;;;;;;;;;;;13.50;99.90;;;;;;5055464;28;20011;-74
2022/10/25 13:18:40;;;;;;;;;;;13.50;99.90;;;;;;5054302;28;20494;-74
2022/10/25 13:21:08;;;;;;;;;;;13.50;99.90;;;;;;5054508;28;19933;-74
2022/10/25 13:23:58;;;;;;;;;;;13.60;99.90;;;;;;5049809;28;19925;-72
2022/10/25 13:26:29;;;;;;;;;;;13.60;99.90;;;;;;5053653;28;21457;-74
2022/10/25 13:28:57;;;;;;;;;;;13.60;99.90;;;;;;5058766;28;19929;-74
2022/10/25 13:31:45;;;;;;;;;;;13.60;99.90;;;;;;5053557;28;19990;-74
2022/10/25 13:34:30;;;;;;;;;;;13.70;99.90;;;;;;5051725;28;20016;-74
2022/10/25 13:36:58;;;;;;;;;;;13.70;99.90;;;;;;5056283;28;19974;-74
2022/10/25 13:39:31;;;;;;;;;;;13.80;99.90;;;;;;5057113;28;20025;-80
2022/10/25 13:42:01;;;;;;;;;;;13.80;99.90;;;;;;5051787;28;19964;-74
2022/10/25 13:44:28;;;;;;;;;;;13.90;99.90;;;;;;5052627;28;19925;-74
2022/10/25 13:46:55;;;;;;;;;;;13.90;99.90;;;;;;5059853;28;20609;-74
2022/10/25 13:49:28;;;;;;;;;;;13.90;99.90;;;;;;5051337;28;19924;-73
2022/10/25 13:51:56;;;;;;;;;;;13.90;99.90;;;;;;5075763;28;19986;-75
2022/10/25 13:54:22;;;;;;;;;;;13.90;99.90;;;;;;5052078;28;20040;-75
2022/10/25 13:56:52;;;;;;;;;;;14.00;99.90;;;;;;5090220;28;20014;-74
2022/10/25 13:59:55;;;;;;;;;;;14.00;99.90;;;;;;5049593;28;19939;-74
2022/10/25 14:02:22;;;;;;;;;;;14.00;99.90;;;;;;5048378;28;20364;-75
2022/10/25 14:04:49;;;;;;;;;;;14.10;99.90;;;;;;5048085;28;19967;-74
2022/10/25 14:07:34;;;;;;;;;;;14.20;99.90;;;;;;5043328;28;19940;-73
2022/10/25 14:10:05;;;;;;;;;;;14.20;99.90;;;;;;5086631;28;19956;-74
2022/10/25 14:12:33;;;;;;;;;;;14.20;99.90;;;;;;5057247;28;19924;-73
2022/10/25 14:15:02;;;;;;;;;;;14.20;99.90;;;;;;5087020;28;19925;-73
2022/10/25 14:17:32;;;;;;;;;;;14.20;99.90;;;;;;5055833;28;20020;-73
2022/10/25 14:20:00;;;;;;;;;;;14.30;99.90;;;;;;5057382;28;19925;-73
2022/10/25 14:22:29;;;;;;;;;;;14.30;99.90;;;;;;5087952;28;19952;-74
2022/10/25 14:24:56;;;;;;;;;;;14.30;99.90;;;;;;5057023;28;20033;-74
2022/10/25 14:27:27;;;;;;;;;;;14.30;99.90;;;;;;5057639;28;19932;-74
2022/10/25 14:30:10;;;;;;;;;;;14.30;99.90;;;;;;5091725;28;19928;-74
2022/10/25 14:32:37;;;;;;;;;;;14.30;99.90;;;;;;5057206;28;19955;-74